Ana Sayfa
METAR-TAF:

METAR-TAF

Havaalanları :

Palembang, Endonezya

Enlem: 02-54S, Boylam: 104-42E, yükseklik: 10 m

METAR: eksik

Saat: 10:39 (03:39 UTC)

Tahmin

Rapor saat 23:00 UTC de 4 saat ve 39 dakika önce yapıldı.
Ayın 07'si saat 00 UTC'den ayın 07'si saat 24 UTC'ye kadar geçerli Tahmin
Rüzgar kuzeybatıdan 5 kt
Görüş mesafesi 10 km veya daha fazla
1000 ft yükseklikte parçalı bulutlu
Geçici
ayın 07'si saat 06 UTC'den ayın 07'si saat 10 UTC'ye kadar
Görüş mesafesi: 3000 m
1000 ft yükseklikte az bulutlu, Kümülonimbus.
1100 ft yükseklikte parçalı çok bulutlu
gök gürültülü fırtına, yağmur
Geçici
ayın 07'si saat 21 UTC'den ayın 07'si saat 24 UTC'ye kadar
Görüş mesafesi: 3000 m
Pus

TAF: WIPP 062300Z 0700/0724 31005KT 9999 SCT010 TEMPO 0706/0710 3000 TSRA FEW010CB BKN011 TEMPO 0721/0724 3000 BR

4.000'den fazla havaalanı için hava durumu gözlemleri ve tahminleri (METAR ve TAF raporları).

Kullanılabilir istasyonlar harita üzerinde sarı ve kırmızı noktalarla gösterilir.

İstasyonun adını görmek için fareyi noktanın üzerinde gezdirin.

Sonrasında hava gözlem ve tahminlerini görmek için tıklayın.

Haritayı değiştirmek için: yaklaştırmak için siyah artı işaretli yeşil düğmeye ve uzaklaştırmak için de eksi işaretli düğmeye hızla tıklayın; bitişik haritalar için yeşil okları kullanın.


METAR-TAF: